Time;durP1;ratioP1;P1;durP2;ratioP2;P2;SDS_P1;SDS_P2;PMS_P1;PMS_P2;Temp;Humidity;BMP_temperature;BMP_pressure;BME280_temperature;BME280_humidity;BME280_pressure;Samples;Min_cycle;Max_cycle;Signal;HPM_P1;HPM_P2
2022/09/14 00:01:21;;;;;;;5.05;3.52;;;;;;;12.52;77.36;98596.30;1732058;82;21027;-40
2022/09/14 00:03:55;;;;;;;5.45;3.52;;;;;;;12.51;77.49;98597.45;1732354;82;21596;-40
2022/09/14 00:06:23;;;;;;;3.83;3.40;;;;;;;12.47;77.44;98589.11;1732082;82;23166;-40
2022/09/14 00:08:51;;;;;;;6.45;3.60;;;;;;;12.46;77.54;98593.77;1732067;82;20995;-40
2022/09/14 00:11:20;;;;;;;3.90;3.10;;;;;;;12.51;77.49;98596.09;1732275;82;21059;-40
2022/09/14 00:13:47;;;;;;;3.90;3.20;;;;;;;12.53;77.50;98595.14;1731885;82;21031;-40
2022/09/14 00:16:18;;;;;;;5.62;3.15;;;;;;;12.52;77.53;98592.22;1732095;82;21463;-40
2022/09/14 00:18:55;;;;;;;3.33;3.00;;;;;;;12.53;77.48;98590.28;1731919;82;21232;-40
2022/09/14 00:21:22;;;;;;;4.80;2.70;;;;;;;12.51;77.46;98593.38;1732497;82;20979;-40
2022/09/14 00:23:49;;;;;;;4.00;3.30;;;;;;;12.55;77.36;98592.78;1732137;82;20939;-40
2022/09/14 00:26:19;;;;;;;3.50;3.20;;;;;;;12.60;77.32;98582.87;1732250;82;21051;-41
2022/09/14 00:28:50;;;;;;;4.50;3.72;;;;;;;12.58;77.43;98584.45;1731912;82;21099;-40
2022/09/14 00:31:18;;;;;;;4.58;3.30;;;;;;;12.53;77.56;98586.98;1732285;82;21209;-40
2022/09/14 00:33:48;;;;;;;6.35;3.70;;;;;;;12.54;77.65;98588.51;1732228;82;21083;-40
2022/09/14 00:36:19;;;;;;;5.12;3.60;;;;;;;12.59;77.63;98586.75;1732052;82;21537;-40
2022/09/14 00:38:46;;;;;;;5.92;4.05;;;;;;;12.66;77.61;98586.55;1732049;82;21537;-40
2022/09/14 00:41:20;;;;;;;5.47;3.77;;;;;;;12.61;77.67;98587.15;1731985;82;21023;-40
2022/09/14 00:44:01;;;;;;;6.10;4.50;;;;;;;12.60;77.82;98585.59;1731953;82;21912;-40
2022/09/14 00:46:39;;;;;;;5.62;3.83;;;;;;;12.60;77.85;98586.17;1731979;82;21007;-40
2022/09/14 00:49:28;;;;;;;5.90;4.20;;;;;;;12.62;77.77;98583.27;1732166;82;21561;-40
2022/09/14 00:52:15;;;;;;;5.03;4.47;;;;;;;12.65;77.84;98580.34;1731640;82;21283;-40
2022/09/14 00:54:52;;;;;;;5.17;4.10;;;;;;;12.61;77.92;98581.71;1714081;82;21631;-40
2022/09/14 00:57:18;;;;;;;5.45;4.10;;;;;;;12.58;77.95;98580.37;1731925;82;23129;-40
2022/09/14 00:59:47;;;;;;;4.72;3.98;;;;;;;12.59;77.99;98578.59;1732041;82;21461;-40
2022/09/14 01:02:14;;;;;;;6.30;4.53;;;;;;;12.63;77.85;98584.05;1732393;82;20944;-40
2022/09/14 01:04:42;;;;;;;6.50;4.30;;;;;;;12.60;78.00;98578.80;1732297;82;20932;-40
2022/09/14 01:07:51;;;;;;;5.47;4.37;;;;;;;12.57;78.11;98578.23;1732460;82;21055;-40
2022/09/14 01:10:44;;;;;;;5.90;4.10;;;;;;;12.57;78.02;98586.38;1732402;82;21285;-40
2022/09/14 01:13:27;;;;;;;5.62;4.25;;;;;;;12.59;78.00;98575.87;1732515;82;20963;-40
2022/09/14 01:16:08;;;;;;;8.75;4.40;;;;;;;12.55;78.07;98577.05;1732405;82;21048;-40
2022/09/14 01:18:45;;;;;;;7.22;4.15;;;;;;;12.51;78.27;98579.00;1734402;80;20977;-40
2022/09/14 01:21:20;;;;;;;4.60;3.70;;;;;;;12.54;78.17;98582.30;1729901;82;21007;-40
2022/09/14 01:23:58;;;;;;;4.35;3.58;;;;;;;12.60;78.08;98577.44;1735009;82;21555;-40
2022/09/14 01:26:53;;;;;;;4.45;4.05;;;;;;;12.63;77.73;98575.28;1723151;82;21472;-40
2022/09/14 01:29:41;;;;;;;4.83;4.33;;;;;;;12.59;77.81;98572.38;1734682;82;21034;-40
2022/09/14 01:32:13;;;;;;;5.62;3.60;;;;;;;12.51;77.93;98566.19;1734581;82;20973;-40
2022/09/14 01:35:03;;;;;;;4.55;3.20;;;;;;;12.47;78.05;98566.00;1734831;82;21045;-40
2022/09/14 01:37:57;;;;;;;4.92;3.52;;;;;;;12.52;77.90;98565.61;1734504;82;21230;-40
2022/09/14 01:40:39;;;;;;;4.55;3.55;;;;;;;12.53;77.80;98555.71;1734698;82;20918;-40
2022/09/14 01:43:25;;;;;;;9.15;3.65;;;;;;;12.51;77.86;98559.39;1734412;82;22164;-40
2022/09/14 01:45:56;;;;;;;4.28;3.30;;;;;;;12.51;77.88;98562.70;1734658;82;21531;-40
2022/09/14 01:48:28;;;;;;;4.58;3.45;;;;;;;12.51;77.84;98558.03;1734700;82;21044;-40
2022/09/14 01:50:57;;;;;;;7.67;3.25;;;;;;;12.56;77.69;98559.00;1734798;82;21715;-40
2022/09/14 01:53:38;;;;;;;6.60;3.90;;;;;;;12.61;77.64;98557.82;1734401;82;20977;-40
2022/09/14 01:56:25;;;;;;;6.75;4.10;;;;;;;12.58;77.67;98553.17;1734614;82;21586;-40
2022/09/14 01:59:09;;;;;;;4.85;3.80;;;;;;;12.53;77.83;98546.20;1733370;82;21074;-40
2022/09/14 02:02:02;;;;;;;4.80;3.47;;;;;;;12.52;77.90;98545.22;1734529;82;21037;-40
2022/09/14 02:04:37;;;;;;;5.92;3.45;;;;;;;12.57;77.79;98540.74;1734872;82;21236;-40
2022/09/14 02:07:04;;;;;;;5.35;4.35;;;;;;;12.60;77.93;98540.73;1734697;82;21002;-40
2022/09/14 02:09:31;;;;;;;4.15;3.75;;;;;;;12.61;77.83;98539.56;1734710;82;20989;-40
2022/09/14 02:11:59;;;;;;;5.80;3.60;;;;;;;12.59;77.66;98542.47;1734692;82;20957;-40
2022/09/14 02:14:26;;;;;;;5.72;4.05;;;;;;;12.59;77.57;98537.81;1734617;82;21073;-40
2022/09/14 02:16:53;;;;;;;4.17;3.55;;;;;;;12.61;77.56;98538.20;1734610;82;21230;-40
2022/09/14 02:19:20;;;;;;;5.20;4.00;;;;;;;12.63;77.58;98534.49;1748377;81;20977;-40
2022/09/14 02:21:47;;;;;;;4.72;4.05;;;;;;;12.60;77.56;98527.13;1748518;82;20977;-40
2022/09/14 02:24:14;;;;;;;5.97;3.70;;;;;;;12.62;77.39;98531.61;1748462;81;21009;-40
2022/09/14 02:26:41;;;;;;;5.47;3.70;;;;;;;12.66;77.31;98530.81;1748482;82;21097;-40
2022/09/14 02:29:08;;;;;;;5.22;3.80;;;;;;;12.69;77.27;98536.81;1748546;82;22054;-40
2022/09/14 02:32:06;;;;;;;5.40;3.90;;;;;;;12.68;77.14;98537.42;1748555;82;21028;-40
2022/09/14 02:34:47;;;;;;;4.37;3.47;;;;;;;12.63;76.97;98534.49;1748582;82;21029;-40
2022/09/14 02:37:28;;;;;;;6.05;3.52;;;;;;;12.60;76.90;98533.93;1714956;82;21582;-40
2022/09/14 02:40:18;;;;;;;3.62;3.25;;;;;;;12.60;76.77;98533.93;1748380;81;20994;-40
2022/09/14 02:43:17;;;;;;;4.25;3.65;;;;;;;12.54;76.90;98534.12;1748186;82;23081;-40
2022/09/14 02:45:58;;;;;;;4.85;3.50;;;;;;;12.48;77.02;98532.22;1748452;82;21634;-40
2022/09/14 02:49:03;;;;;;;4.37;3.62;;;;;;;12.43;77.08;98534.76;1748793;82;21009;-40
2022/09/14 02:51:47;;;;;;;6.30;3.90;;;;;;;12.44;77.02;98530.09;1747853;82;21033;-40
2022/09/14 02:54:18;;;;;;;6.25;3.95;;;;;;;12.42;77.20;98534.56;1748741;81;21008;-40
2022/09/14 02:56:45;;;;;;;4.55;3.22;;;;;;;12.38;77.10;98531.08;1748017;82;21504;-40
2022/09/14 02:59:12;;;;;;;4.08;3.40;;;;;;;12.33;77.14;98535.55;1721339;82;21008;-40
2022/09/14 03:01:38;;;;;;;6.58;3.40;;;;;;;12.35;77.12;98523.69;1748814;81;21004;-40
2022/09/14 03:04:05;;;;;;;5.92;3.60;;;;;;;12.42;77.00;98523.69;1748856;82;20937;-40
2022/09/14 03:06:31;;;;;;;4.97;3.27;;;;;;;12.46;77.03;98520.38;1748564;82;21072;-40
2022/09/14 03:08:58;;;;;;;5.30;3.42;;;;;;;12.50;76.86;98518.41;1748485;81;21222;-40
2022/09/14 03:11:25;;;;;;;6.15;3.33;;;;;;;12.51;76.71;98521.33;1748464;82;21005;-40
2022/09/14 03:13:52;;;;;;;5.53;3.20;;;;;;;12.52;76.41;98519.39;1748415;81;20997;-40
2022/09/14 03:16:18;;;;;;;6.03;3.55;;;;;;;12.54;76.17;98516.46;1748435;81;21005;-40
2022/09/14 03:18:45;;;;;;;4.97;3.87;;;;;;;12.56;76.08;98525.59;1739615;81;21353;-40
2022/09/14 03:21:14;;;;;;;6.05;3.35;;;;;;;12.53;76.08;98520.37;1734680;82;21066;-40
2022/09/14 03:23:44;;;;;;;5.85;3.17;;;;;;;12.51;75.90;98517.25;1734313;82;21677;-40
2022/09/14 03:26:14;;;;;;;3.58;3.25;;;;;;;12.53;75.52;98518.23;1734567;82;20958;-40
2022/09/14 03:28:41;;;;;;;4.60;3.20;;;;;;;12.49;75.27;98516.11;1734552;81;21034;-40
2022/09/14 03:31:10;;;;;;;4.00;3.52;;;;;;;12.45;75.30;98509.30;1734349;82;21308;-40
2022/09/14 03:33:36;;;;;;;4.40;3.33;;;;;;;12.42;75.44;98519.61;1734461;82;21099;-40
2022/09/14 03:36:18;;;;;;;7.62;3.40;;;;;;;12.42;75.53;98516.89;1734517;82;21529;-40
2022/09/14 03:38:51;;;;;;;4.95;3.20;;;;;;;12.42;75.25;98525.05;1734341;82;20950;-40
2022/09/14 03:41:18;;;;;;;6.35;3.27;;;;;;;12.45;75.13;98521.53;1734533;82;20991;-40
2022/09/14 03:43:45;;;;;;;7.97;3.42;;;;;;;12.46;75.09;98525.03;1734598;82;21037;-40
2022/09/14 03:46:15;;;;;;;4.78;3.98;;;;;;;12.46;75.30;98527.75;1734835;82;21626;-40
2022/09/14 03:48:42;;;;;;;3.92;3.42;;;;;;;12.45;75.22;98522.11;1699334;83;21047;-40
2022/09/14 03:51:10;;;;;;;5.17;3.40;;;;;;;12.44;75.11;98521.33;1699549;84;21045;-40
2022/09/14 03:53:37;;;;;;;5.87;3.30;;;;;;;12.49;75.09;98516.11;1694840;84;21040;-40
2022/09/14 03:56:10;;;;;;;5.37;4.03;;;;;;;12.50;75.08;98521.13;1694608;84;21076;-40
2022/09/14 03:58:37;;;;;;;5.62;3.83;;;;;;;12.44;75.20;98528.13;1694762;84;21137;-40
2022/09/14 04:01:13;;;;;;;7.30;3.55;;;;;;;12.38;75.51;98529.72;1694413;84;20949;-40
2022/09/14 04:03:40;;;;;;;4.78;3.60;;;;;;;12.39;75.40;98533.97;1694875;84;21004;-40
2022/09/14 04:06:08;;;;;;;5.30;3.95;;;;;;;12.42;75.49;98529.70;1694524;84;21064;-40
2022/09/14 04:08:38;;;;;;;6.33;3.92;;;;;;;12.43;75.56;98530.68;1694699;84;21883;-40
2022/09/14 04:11:16;;;;;;;7.47;4.62;;;;;;;12.43;75.63;98531.26;1694537;84;21254;-40
2022/09/14 04:13:45;;;;;;;6.15;3.60;;;;;;;12.38;75.68;98532.44;1694562;84;21055;-40
2022/09/14 04:16:14;;;;;;;6.65;3.70;;;;;;;12.40;75.74;98533.38;1694538;84;21004;-40
2022/09/14 04:18:41;;;;;;;4.87;3.75;;;;;;;12.43;75.78;98526.60;1697088;83;21610;-40
2022/09/14 04:21:13;;;;;;;7.00;4.12;;;;;;;12.47;75.82;98530.66;1684307;85;21564;-40
2022/09/14 04:23:40;;;;;;;5.22;3.92;;;;;;;12.49;75.74;98526.98;1710106;84;21219;-40
2022/09/14 04:26:11;;;;;;;7.87;4.00;;;;;;;12.49;75.67;98526.98;1699977;84;21004;-40
2022/09/14 04:28:38;;;;;;;4.53;3.33;;;;;;;12.52;75.50;98527.55;1710140;83;20972;-40
2022/09/14 04:31:05;;;;;;;4.83;3.52;;;;;;;12.55;75.40;98524.81;1699938;84;21052;-40
2022/09/14 04:33:34;;;;;;;5.58;3.60;;;;;;;12.59;75.43;98528.30;1709527;84;21095;-40
2022/09/14 04:36:05;;;;;;;6.10;3.90;;;;;;;12.60;75.43;98524.41;1666187;86;21865;-40
2022/09/14 04:38:31;;;;;;;12.55;4.10;;;;;;;12.57;75.40;98525.79;1672997;85;20954;-40
2022/09/14 04:40:58;;;;;;;5.55;3.45;;;;;;;12.60;75.43;98535.29;1666306;86;21053;-40
2022/09/14 04:43:25;;;;;;;4.15;3.75;;;;;;;12.65;75.09;98530.03;1652403;86;21104;-40
2022/09/14 04:45:52;;;;;;;3.98;3.50;;;;;;;12.63;74.54;98524.97;1648704;87;21540;-40
2022/09/14 04:48:19;;;;;;;4.62;3.77;;;;;;;12.55;74.62;98533.55;1672936;85;21213;-40
2022/09/14 04:50:46;;;;;;;6.58;3.77;;;;;;;12.48;74.88;98527.56;1666063;86;21044;-40
2022/09/14 04:53:12;;;;;;;4.03;3.62;;;;;;;12.52;75.16;98538.42;1672896;85;21560;-40
2022/09/14 04:55:39;;;;;;;4.65;3.55;;;;;;;12.60;75.12;98538.59;1666135;86;21053;-40
2022/09/14 04:58:07;;;;;;;4.05;3.50;;;;;;;12.66;75.14;98534.89;1672646;85;21057;-40
2022/09/14 05:00:35;;;;;;;5.05;3.67;;;;;;;12.67;75.18;98540.52;1666276;86;21150;-40
2022/09/14 05:03:04;;;;;;;3.60;3.30;;;;;;;12.71;75.22;98548.08;1652514;86;21027;-40
2022/09/14 05:05:35;;;;;;;4.53;3.70;;;;;;;12.73;74.88;98541.68;1648585;87;21015;-40
2022/09/14 05:08:02;;;;;;;9.35;3.90;;;;;;;12.77;74.87;98547.88;1672933;85;21105;-40
2022/09/14 05:10:28;;;;;;;8.33;4.15;;;;;;;12.81;74.97;98548.64;1666245;86;21068;-40
2022/09/14 05:12:55;;;;;;;5.25;3.67;;;;;;;12.80;74.84;98548.44;1672698;85;21240;-40
2022/09/14 05:15:22;;;;;;;4.20;3.80;;;;;;;12.75;74.65;98551.56;1666044;86;21060;-40
2022/09/14 05:17:49;;;;;;;4.58;3.77;;;;;;;12.72;74.35;98542.27;1652237;86;21048;-40
2022/09/14 05:20:17;;;;;;;4.85;3.80;;;;;;;12.74;74.42;98540.48;1684209;85;21033;-40
2022/09/14 05:22:44;;;;;;;4.35;3.92;;;;;;;12.77;74.40;98529.62;1710019;83;21057;-40
2022/09/14 05:25:10;;;;;;;5.35;3.95;;;;;;;12.78;74.10;98534.48;1674070;84;21224;-40
2022/09/14 05:27:37;;;;;;;4.85;3.65;;;;;;;12.73;73.91;98526.11;1709941;83;20895;-40
2022/09/14 05:30:06;;;;;;;4.37;3.42;;;;;;;12.71;73.88;98523.03;1700303;84;21095;-41
2022/09/14 05:32:33;;;;;;;3.10;2.77;;;;;;;12.69;73.57;98521.86;1710430;83;21109;-40
2022/09/14 05:35:00;;;;;;;4.83;3.37;;;;;;;12.70;73.62;98518.75;1700413;84;21100;-40
2022/09/14 05:37:27;;;;;;;4.62;3.70;;;;;;;12.76;73.88;98527.28;1709801;83;23182;-40
2022/09/14 05:39:53;;;;;;;5.20;3.92;;;;;;;12.79;73.75;98531.92;1700009;84;20985;-40
2022/09/14 05:42:20;;;;;;;4.22;3.05;;;;;;;12.81;73.62;98528.23;1709639;83;20997;-40
2022/09/14 05:44:47;;;;;;;4.75;3.40;;;;;;;12.87;72.98;98517.15;1700103;84;21040;-40
2022/09/14 05:47:14;;;;;;;3.95;3.62;;;;;;;12.90;72.80;98521.20;1688305;85;21047;-40
2022/09/14 05:49:40;;;;;;;4.15;3.42;;;;;;;12.90;72.71;98524.52;1684350;85;21234;-40
2022/09/14 05:52:07;;;;;;;4.45;3.40;;;;;;;12.86;72.75;98521.81;1709718;83;20978;-40
2022/09/14 05:54:34;;;;;;;3.50;3.20;;;;;;;12.88;72.90;98521.40;1700076;84;21040;-40
2022/09/14 05:57:01;;;;;;;5.90;3.40;;;;;;;12.93;72.90;98523.70;1687945;85;21017;-40
2022/09/14 05:59:30;;;;;;;3.55;3.25;;;;;;;12.96;72.70;98528.38;1684353;85;21244;-40
2022/09/14 06:01:58;;;;;;;9.33;3.47;;;;;;;13.03;72.40;98520.95;1710065;83;21134;-40
2022/09/14 06:04:25;;;;;;;3.60;3.30;;;;;;;13.07;72.30;98523.65;1700047;84;21025;-40
2022/09/14 06:06:52;;;;;;;4.70;3.98;;;;;;;13.06;71.99;98518.81;1688280;85;21590;-40
2022/09/14 06:09:18;;;;;;;5.90;3.83;;;;;;;13.09;72.14;98526.77;1684344;85;21045;-40
2022/09/14 06:11:45;;;;;;;8.38;3.83;;;;;;;13.11;72.43;98519.02;1709920;83;21006;-40
2022/09/14 06:14:12;;;;;;;26.02;4.72;;;;;;;13.20;71.87;98524.80;1700090;84;21228;-40
2022/09/14 06:16:38;;;;;;;24.65;4.40;;;;;;;13.29;71.59;98522.41;1709700;83;21556;-40
2022/09/14 06:19:06;;;;;;;13.90;3.90;;;;;;;13.35;71.15;98518.11;1700013;84;21029;-40
2022/09/14 06:21:33;;;;;;;17.50;4.90;;;;;;;13.36;70.75;98516.91;1688349;85;20977;-40
2022/09/14 06:24:02;;;;;;;9.88;4.40;;;;;;;13.33;70.41;98515.00;1684553;85;21618;-40
2022/09/14 06:26:29;;;;;;;7.17;3.42;;;;;;;13.31;70.20;98514.61;1681449;85;21839;-40
2022/09/14 06:28:57;;;;;;;7.08;2.90;;;;;;;13.30;70.12;98518.53;1700274;84;21047;-40
2022/09/14 06:31:24;;;;;;;22.48;5.00;;;;;;;13.34;70.03;98514.41;1709914;83;20958;-40
2022/09/14 06:33:51;;;;;;;14.68;4.03;;;;;;;13.36;70.05;98511.47;1700238;84;21522;-40
2022/09/14 06:36:20;;;;;;;7.17;4.10;;;;;;;13.34;70.04;98512.47;1709781;83;21014;-40
2022/09/14 06:38:48;;;;;;;5.97;3.30;;;;;;;13.36;70.10;98511.47;1700247;84;21200;-40
2022/09/14 06:41:19;;;;;;;11.00;3.35;;;;;;;13.37;69.47;98508.16;1688166;85;20973;-40
2022/09/14 06:43:46;;;;;;;3.87;3.00;;;;;;;13.42;69.54;98512.61;1684359;85;21093;-40
2022/09/14 06:46:20;;;;;;;4.87;2.45;;;;;;;13.55;69.74;98514.87;1709622;83;21041;-40
2022/09/14 06:48:51;;;;;;;4.28;2.58;;;;;;;13.68;68.77;98509.14;1700159;84;21048;-40
2022/09/14 06:51:22;;;;;;;4.22;2.52;;;;;;;13.74;68.39;98511.05;1709064;83;21163;-40
2022/09/14 06:53:49;;;;;;;4.65;2.65;;;;;;;13.81;68.01;98506.11;1709576;83;21017;-40
2022/09/14 06:56:16;;;;;;;6.10;2.37;;;;;;;13.88;67.98;98501.39;1709814;83;20994;-40
2022/09/14 06:58:45;;;;;;;2.25;2.05;;;;;;;14.01;67.89;98505.75;1709673;83;21109;-40
2022/09/14 07:01:14;;;;;;;4.17;2.40;;;;;;;14.14;66.33;98498.63;1709674;83;21579;-40
2022/09/14 07:03:45;;;;;;;4.30;1.90;;;;;;;14.29;66.20;98494.58;1709937;83;21165;-40
2022/09/14 07:06:16;;;;;;;3.27;1.87;;;;;;;14.41;66.24;98483.02;1709674;83;21286;-40
2022/09/14 07:08:43;;;;;;;1.70;1.60;;;;;;;14.48;65.10;98495.97;1709752;83;20989;-40
2022/09/14 07:11:11;;;;;;;2.42;1.70;;;;;;;14.54;64.97;98490.27;1709656;83;21093;-40
2022/09/14 07:13:38;;;;;;;2.35;1.87;;;;;;;14.59;64.45;98494.50;1709673;83;21030;-40
2022/09/14 07:16:07;;;;;;;2.02;1.77;;;;;;;14.66;63.53;98491.70;1709692;83;21228;-40
2022/09/14 07:18:35;;;;;;;2.02;1.60;;;;;;;14.68;63.68;98479.19;1709670;83;20985;-40
2022/09/14 07:21:12;;;;;;;1.80;1.47;;;;;;;14.74;63.08;98484.97;1702068;83;21044;-40
2022/09/14 07:23:40;;;;;;;2.35;1.30;;;;;;;14.82;62.88;98482.92;1701362;84;21097;-40
2022/09/14 07:26:17;;;;;;;1.92;1.45;;;;;;;14.87;61.60;98479.16;1701935;84;21097;-40
2022/09/14 07:28:46;;;;;;;1.82;1.40;;;;;;;14.96;61.42;98469.13;1702238;84;21099;-41
2022/09/14 07:31:26;;;;;;;2.75;1.70;;;;;;;15.05;61.78;98458.47;1739289;82;21516;-40
2022/09/14 07:33:55;;;;;;;1.57;1.37;;;;;;;15.12;61.62;98468.69;1739958;82;20954;-40
2022/09/14 07:36:23;;;;;;;2.60;1.30;;;;;;;15.15;61.70;98466.49;1739867;82;21560;-40
2022/09/14 07:38:51;;;;;;;1.50;1.40;;;;;;;15.20;61.68;98466.03;1740278;82;21029;-40
2022/09/14 07:41:19;;;;;;;2.47;1.42;;;;;;;15.26;60.12;98465.58;1739992;81;21238;-41
2022/09/14 07:43:50;;;;;;;2.02;1.35;;;;;;;15.28;59.74;98463.22;1740043;82;20925;-40
2022/09/14 07:46:17;;;;;;;2.83;1.20;;;;;;;15.30;59.42;98460.86;1739841;82;21084;-40
2022/09/14 07:48:46;;;;;;;1.62;1.27;;;;;;;15.31;59.53;98460.42;1740066;81;21567;-40
2022/09/14 07:51:13;;;;;;;2.27;1.47;;;;;;;15.37;59.15;98456.64;1739799;82;21041;-40
2022/09/14 07:53:42;;;;;;;2.75;1.10;;;;;;;15.44;58.45;98455.93;1739718;82;21073;-40
2022/09/14 07:56:09;;;;;;;2.33;1.52;;;;;;;15.54;58.00;98451.55;1739609;81;21034;-40
2022/09/14 07:58:36;;;;;;;2.42;1.50;;;;;;;15.65;58.95;98442.56;1740015;81;21021;-40
2022/09/14 08:01:07;;;;;;;2.25;1.40;;;;;;;15.85;59.20;98446.14;1739587;81;21017;-40
2022/09/14 08:03:38;;;;;;;3.62;1.42;;;;;;;16.01;57.31;98447.63;1738398;82;21038;-40
2022/09/14 08:06:09;;;;;;;1.42;1.32;;;;;;;16.10;57.09;98448.44;1734806;82;21104;-40
2022/09/14 08:08:38;;;;;;;2.50;1.25;;;;;;;16.17;56.01;98444.81;1739906;81;22080;-40
2022/09/14 08:11:10;;;;;;;1.77;1.30;;;;;;;16.17;56.88;98447.55;1739738;82;21088;-41
2022/09/14 08:13:39;;;;;;;1.60;1.50;;;;;;;16.18;57.06;98451.81;1740022;82;21096;-40
2022/09/14 08:16:06;;;;;;;1.60;1.32;;;;;;;16.16;57.17;98440.53;1739661;82;21060;-40
2022/09/14 08:18:34;;;;;;;2.22;1.50;;;;;;;16.16;57.34;98448.73;1739612;82;21162;-40
2022/09/14 08:21:06;;;;;;;1.40;1.30;;;;;;;16.13;57.49;98444.09;1736740;82;20970;-41
2022/09/14 08:23:34;;;;;;;2.17;1.60;;;;;;;16.11;57.74;98445.12;1736750;82;21595;-40
2022/09/14 08:26:13;;;;;;;2.00;1.37;;;;;;;16.06;56.81;98445.78;1736590;82;20977;-40
2022/09/14 08:28:40;;;;;;;1.60;1.30;;;;;;;15.99;56.58;98444.52;1736834;82;21002;-40
2022/09/14 08:31:12;;;;;;;2.35;1.37;;;;;;;15.89;57.18;98444.11;1736344;82;23147;-40
2022/09/14 08:34:27;;;;;;;2.67;1.37;;;;;;;15.81;57.67;98434.50;1829617;78;22526;-40
2022/09/14 08:36:53;;;;;;;4.55;1.80;;;;;;;15.67;58.28;98437.47;1802695;79;20927;-41
2022/09/14 08:39:20;;;;;;;1.92;1.72;;;;;;;15.61;58.45;98439.13;1802699;79;21793;-40
2022/09/14 08:41:54;;;;;;;4.10;1.85;;;;;;;15.54;58.39;98433.17;1802698;79;20959;-40
2022/09/14 08:44:36;;;;;;;3.50;1.80;;;;;;;15.47;58.81;98440.09;1802567;79;20881;-40
2022/09/14 08:47:07;;;;;;;1.75;1.60;;;;;;;15.41;59.57;98453.26;1802509;79;21001;-41
2022/09/14 08:50:04;;;;;;;2.37;1.50;;;;;;;15.33;59.96;98443.64;1802730;79;21568;-41
2022/09/14 08:52:39;;;;;;;1.77;1.55;;;;;;;15.28;60.40;98444.10;1802667;79;21118;-40
2022/09/14 08:55:35;;;;;;;9.23;1.90;;;;;;;15.28;60.69;98435.32;1802790;79;20970;-41
2022/09/14 08:58:13;;;;;;;2.37;2.00;;;;;;;15.38;61.00;98443.17;1795994;79;20975;-40
2022/09/14 09:00:51;;;;;;;2.15;1.95;;;;;;;15.38;60.84;98444.53;1802302;79;20940;-40
2022/09/14 09:03:29;;;;;;;3.65;1.92;;;;;;;15.37;61.14;98443.77;1802795;79;21081;-41
2022/09/14 09:06:25;;;;;;;2.62;1.98;;;;;;;15.37;61.28;98441.62;1802460;79;21355;-41
2022/09/14 09:09:15;;;;;;;2.30;1.80;;;;;;;15.38;61.47;98439.08;1802757;79;20943;-40
2022/09/14 09:11:45;;;;;;;3.83;1.85;;;;;;;15.35;61.34;98430.33;1799090;79;22195;-40
2022/09/14 09:14:23;;;;;;;2.30;2.10;;;;;;;15.33;61.42;98428.61;1803127;79;21035;-40
2022/09/14 09:16:52;;;;;;;1.92;1.57;;;;;;;15.34;61.54;98417.88;1802839;79;21022;-40
2022/09/14 09:19:39;;;;;;;2.83;2.17;;;;;;;15.38;61.42;98426.78;1803206;79;21069;-41
2022/09/14 09:22:07;;;;;;;4.15;1.80;;;;;;;15.41;60.95;98415.80;1802627;79;20959;-40
2022/09/14 09:24:45;;;;;;;1.27;1.17;;;;;;;15.48;60.64;98417.66;1802817;79;21066;-40
2022/09/14 09:27:13;;;;;;;2.20;2.00;;;;;;;15.55;60.86;98412.09;1802273;79;21002;-40
2022/09/14 09:29:41;;;;;;;2.62;1.80;;;;;;;15.71;60.33;98424.52;1803116;79;20944;-40
2022/09/14 09:32:22;;;;;;;3.00;2.40;;;;;;;15.84;60.11;98418.63;1802538;79;21134;-40
2022/09/14 09:35:14;;;;;;;3.22;2.30;;;;;;;15.95;59.84;98420.59;1802403;79;20919;-40
2022/09/14 09:37:48;;;;;;;2.75;2.40;;;;;;;16.03;59.32;98420.63;1800031;79;21529;-40
2022/09/14 09:40:29;;;;;;;3.08;2.50;;;;;;;16.09;58.98;98420.92;1802343;79;20967;-40
2022/09/14 09:43:14;;;;;;;2.58;2.37;;;;;;;16.13;58.79;98420.84;1784595;79;21105;-40
2022/09/14 09:45:57;;;;;;;3.02;2.30;;;;;;;16.12;58.48;98412.48;1802134;79;21119;-41
2022/09/14 09:48:39;;;;;;;3.45;2.58;;;;;;;16.15;58.59;98408.31;1802162;79;21855;-40
2022/09/14 09:51:27;;;;;;;4.35;2.52;;;;;;;16.20;58.29;98407.83;1801923;79;20959;-40
2022/09/14 09:54:12;;;;;;;4.22;2.85;;;;;;;16.28;58.22;98405.72;1780081;79;20984;-40
2022/09/14 09:56:55;;;;;;;5.10;3.15;;;;;;;16.35;58.03;98401.48;1799377;79;21074;-41
2022/09/14 09:59:36;;;;;;;4.45;2.75;;;;;;;16.44;58.00;98398.37;1802052;79;21118;-40
2022/09/14 10:02:29;;;;;;;3.90;2.90;;;;;;;16.55;57.97;98400.12;1801943;79;21074;-40
2022/09/14 10:05:03;;;;;;;4.50;3.17;;;;;;;16.60;57.55;98400.42;1801992;79;20998;-40
2022/09/14 10:07:38;;;;;;;4.85;3.20;;;;;;;16.65;57.79;98401.89;1801951;79;21007;-40
2022/09/14 10:10:12;;;;;;;4.65;3.65;;;;;;;16.70;57.95;98402.14;1800696;79;21054;-40
2022/09/14 10:12:54;;;;;;;4.97;3.70;;;;;;;16.73;57.63;98398.58;1801945;79;21508;-40
2022/09/14 10:15:33;;;;;;;3.65;3.35;;;;;;;16.75;58.38;98401.64;1802106;79;21474;-40
2022/09/14 10:18:14;;;;;;;4.72;3.83;;;;;;;16.76;58.86;98401.83;1802236;79;20963;-40
2022/09/14 10:20:54;;;;;;;5.70;3.60;;;;;;;16.76;59.68;98405.93;1802182;79;20971;-40
2022/09/14 10:23:25;;;;;;;4.72;3.52;;;;;;;16.75;59.72;98395.42;1802274;79;21001;-40
2022/09/14 10:26:11;;;;;;;6.53;4.45;;;;;;;16.74;60.57;98401.50;1802314;79;21123;-40
2022/09/14 10:28:46;;;;;;;4.60;3.70;;;;;;;16.66;61.85;98404.19;1802261;79;20994;-40
2022/09/14 10:31:21;;;;;;;4.62;3.72;;;;;;;16.55;63.69;98404.99;1802529;79;20980;-40
2022/09/14 10:33:57;;;;;;;6.90;3.85;;;;;;;16.47;64.54;98407.09;1800863;79;21369;-40
2022/09/14 10:36:39;;;;;;;7.55;4.05;;;;;;;16.47;65.17;98407.09;1799681;79;21027;-40
2022/09/14 10:39:23;;;;;;;7.10;3.70;;;;;;;16.52;66.04;98403.08;1799389;79;21211;-40
2022/09/14 10:42:04;;;;;;;4.30;3.83;;;;;;;16.55;66.50;98407.73;1799543;79;20955;-40
2022/09/14 10:45:13;;;;;;;4.70;4.00;;;;;;;16.24;66.24;98362.63;1798487;79;21552;-40
2022/09/14 10:48:13;;;;;;;4.72;4.10;;;;;;;16.43;66.56;98410.49;1799685;79;21643;-40
2022/09/14 10:51:20;;;;;;;6.58;3.83;;;;;;;16.31;66.82;98408.41;1799239;79;21055;-40
2022/09/14 10:54:32;;;;;;;5.70;3.90;;;;;;;16.27;67.40;98404.16;1788370;79;21235;-40
2022/09/14 10:57:13;;;;;;;5.17;4.25;;;;;;;16.21;67.93;98397.66;1793970;79;20995;-40
2022/09/14 11:00:11;;;;;;;5.08;4.40;;;;;;;16.15;68.39;98399.33;1788629;79;22089;-41
2022/09/14 11:02:55;;;;;;;8.78;4.17;;;;;;;16.08;68.54;98406.47;1770100;79;21609;-40
2022/09/14 11:05:36;;;;;;;4.60;4.00;;;;;;;15.98;69.38;98378.73;1799541;79;21038;-41
2022/09/14 11:08:21;;;;;;;8.18;4.40;;;;;;;16.05;70.13;98395.02;1798813;79;23112;-40
2022/09/14 11:11:14;;;;;;;5.75;4.90;;;;;;;15.97;70.82;98388.14;1798348;79;20979;-40
2022/09/14 11:14:06;;;;;;;6.33;4.50;;;;;;;15.87;71.29;98389.11;1797872;79;20958;-40
2022/09/14 11:16:48;;;;;;;6.78;4.67;;;;;;;15.86;72.06;98388.92;1799434;79;20982;-40
2022/09/14 11:19:54;;;;;;;5.62;5.05;;;;;;;15.88;72.77;98396.69;1799328;79;22238;-40
2022/09/14 11:22:41;;;;;;;6.97;5.05;;;;;;;15.84;72.78;98394.02;1799183;79;21236;-40
2022/09/14 11:25:22;;;;;;;7.78;4.72;;;;;;;15.77;73.01;98398.27;1799110;79;21553;-40
2022/09/14 11:27:57;;;;;;;7.65;4.65;;;;;;;15.80;73.50;98394.69;1794363;79;21081;-41
2022/09/14 11:30:43;;;;;;;4.83;4.33;;;;;;;15.92;73.66;98396.05;1799354;79;21014;-40
2022/09/14 11:33:21;;;;;;;5.30;4.50;;;;;;;16.02;73.70;98387.63;1799353;79;21085;-41
2022/09/14 11:35:56;;;;;;;7.40;4.10;;;;;;;16.05;73.35;98384.08;1799387;79;21285;-40
2022/09/14 11:38:30;;;;;;;5.58;3.85;;;;;;;16.08;73.26;98390.06;1799363;79;21070;-40
2022/09/14 11:41:25;;;;;;;4.85;3.80;;;;;;;16.15;73.13;98392.50;1799604;79;21616;-40
2022/09/14 11:44:15;;;;;;;8.23;4.72;;;;;;;16.20;72.55;98397.48;1799646;79;21073;-40
2022/09/14 11:46:52;;;;;;;11.85;4.72;;;;;;;16.12;72.49;98397.45;1790291;79;20995;-40
2022/09/14 11:49:27;;;;;;;5.53;4.20;;;;;;;15.98;72.67;98399.23;1799480;79;21228;-40
2022/09/14 11:52:20;;;;;;;7.00;4.50;;;;;;;15.92;72.79;98394.09;1799645;79;21023;-40
2022/09/14 11:54:47;;;;;;;6.08;5.00;;;;;;;15.91;72.77;98393.91;1799316;79;21010;-40
2022/09/14 11:57:19;;;;;;;6.42;5.37;;;;;;;15.86;72.75;98388.15;1799836;78;21047;-40
2022/09/14 11:59:56;;;;;;;7.20;4.80;;;;;;;15.84;73.08;98387.78;1799603;79;22031;-40
2022/09/14 12:02:29;;;;;;;6.65;4.85;;;;;;;15.87;73.29;98382.87;1799176;79;23177;-40
2022/09/14 12:05:10;;;;;;;6.45;4.80;;;;;;;15.97;73.44;98379.95;1799695;79;21027;-40
2022/09/14 12:07:50;;;;;;;4.83;4.30;;;;;;;16.08;73.46;98370.92;1799345;79;21396;-40